Time;durP1;ratioP1;P1;durP2;ratioP2;P2;SDS_P1;SDS_P2;PMS_P1;PMS_P2;Temp;Humidity;BMP_temperature;BMP_pressure;BME280_temperature;BME280_humidity;BME280_pressure;Samples;Min_cycle;Max_cycle;Signal;HPM_P1;HPM_P2
2021/11/29 00:01:42;;;;;;;8.10;1.77;;;;;;;;;;5131161;27;20452;-69
2021/11/29 00:04:08;;;;;;;7.88;1.30;;;;;;;;;;5127766;27;20148;-69
2021/11/29 00:06:34;;;;;;;9.35;1.27;;;;;;;;;;5146261;27;20057;-69
2021/11/29 00:09:00;;;;;;;7.88;1.15;;;;;;;;;;5145092;27;20043;-69
2021/11/29 00:11:27;;;;;;;6.53;1.30;;;;;;;;;;5147518;27;20095;-69
2021/11/29 00:13:53;;;;;;;9.43;1.45;;;;;;;;;;5147899;27;20031;-69
2021/11/29 00:16:19;;;;;;;4.40;1.27;;;;;;;;;;5147940;27;20047;-69
2021/11/29 00:18:45;;;;;;;5.78;1.85;;;;;;;;;;5147329;27;20035;-69
2021/11/29 00:21:13;;;;;;;4.72;1.17;;;;;;;;;;5127844;27;20498;-68
2021/11/29 00:23:39;;;;;;;7.53;1.23;;;;;;;;;;5130199;27;20051;-69
2021/11/29 00:26:05;;;;;;;13.70;1.83;;;;;;;;;;5148518;27;20035;-68
2021/11/29 00:28:31;;;;;;;11.80;1.92;;;;;;;;;;5148548;27;20139;-69
2021/11/29 00:30:57;;;;;;;8.05;1.65;;;;;;;;;;5134607;27;20075;-69
2021/11/29 00:33:23;;;;;;;11.43;1.85;;;;;;;;;;5130132;27;20059;-69
2021/11/29 00:35:49;;;;;;;8.95;2.00;;;;;;;;;;5130164;27;20051;-69
2021/11/29 00:38:16;;;;;;;3.63;1.08;;;;;;;;;;5129862;27;20097;-68
2021/11/29 00:40:43;;;;;;;3.85;0.90;;;;;;;;;;5147470;27;20063;-69
2021/11/29 00:43:09;;;;;;;4.85;0.98;;;;;;;;;;5148120;27;20039;-69
2021/11/29 00:45:35;;;;;;;12.75;1.90;;;;;;;;;;5129699;27;20051;-70
2021/11/29 00:48:02;;;;;;;6.30;1.50;;;;;;;;;;5129437;27;20394;-69
2021/11/29 00:50:28;;;;;;;5.90;1.10;;;;;;;;;;5129435;27;20050;-69
2021/11/29 00:52:54;;;;;;;12.27;1.40;;;;;;;;;;5148426;27;20047;-69
2021/11/29 00:55:20;;;;;;;8.48;1.30;;;;;;;;;;5128909;27;20040;-69
2021/11/29 00:57:47;;;;;;;7.38;1.10;;;;;;;;;;5128829;27;20051;-69
2021/11/29 01:00:18;;;;;;;3.73;1.70;;;;;;;;;;5147757;27;20054;-69
2021/11/29 01:02:44;;;;;;;9.07;1.30;;;;;;;;;;5128761;27;20097;-69
2021/11/29 01:05:10;;;;;;;4.05;0.77;;;;;;;;;;5112456;27;20051;-69
2021/11/29 01:07:37;;;;;;;9.55;0.88;;;;;;;;;;5111883;27;20108;-69
2021/11/29 01:10:05;;;;;;;3.92;1.52;;;;;;;;;;5128794;27;20035;-70
2021/11/29 01:12:31;;;;;;;7.55;0.60;;;;;;;;;;5128987;27;20490;-69
2021/11/29 01:14:57;;;;;;;10.15;1.10;;;;;;;;;;5147237;27;20065;-70
2021/11/29 01:17:23;;;;;;;7.65;0.70;;;;;;;;;;5128409;27;20031;-70
2021/11/29 01:19:49;;;;;;;1.80;0.55;;;;;;;;;;5112477;27;20067;-70
2021/11/29 01:22:16;;;;;;;3.17;0.73;;;;;;;;;;5111980;27;20107;-69
2021/11/29 01:24:42;;;;;;;0.40;0.40;;;;;;;;;;5128941;27;20043;-70
2021/11/29 01:27:08;;;;;;;1.20;0.50;;;;;;;;;;5127490;27;20487;-68
2021/11/29 01:29:35;;;;;;;0.40;0.40;;;;;;;;;;5127266;27;20051;-68
2021/11/29 01:32:01;;;;;;;0.20;0.20;;;;;;;;;;5147326;27;20039;-68
2021/11/29 01:34:27;;;;;;;1.25;0.40;;;;;;;;;;5147882;27;20043;-69
2021/11/29 01:36:53;;;;;;;1.55;0.40;;;;;;;;;;5129232;27;20043;-69
2021/11/29 01:39:20;;;;;;;2.67;0.50;;;;;;;;;;5125460;28;20056;-70
2021/11/29 01:41:47;;;;;;;0.35;0.35;;;;;;;;;;5126323;28;20074;-70
2021/11/29 01:44:13;;;;;;;1.17;0.30;;;;;;;;;;5108363;28;20082;-70
2021/11/29 01:46:39;;;;;;;0.30;0.30;;;;;;;;;;5126365;28;20093;-70
2021/11/29 01:49:06;;;;;;;0.60;0.55;;;;;;;;;;5126067;28;20039;-71
2021/11/29 01:51:32;;;;;;;2.42;0.80;;;;;;;;;;5125190;28;20074;-71
2021/11/29 01:53:58;;;;;;;0.47;0.47;;;;;;;;;;5126407;28;20047;-71
2021/11/29 01:56:24;;;;;;;1.40;0.40;;;;;;;;;;5125367;28;20064;-71
2021/11/29 01:58:50;;;;;;;0.50;0.50;;;;;;;;;;5124349;28;20047;-71
2021/11/29 02:01:21;;;;;;;3.72;0.73;;;;;;;;;;5124831;28;20040;-69
2021/11/29 02:03:48;;;;;;;0.73;0.68;;;;;;;;;;5124829;28;20418;-70
2021/11/29 02:06:15;;;;;;;0.57;0.50;;;;;;;;;;5126116;28;20039;-69
2021/11/29 02:08:41;;;;;;;1.42;0.50;;;;;;;;;;5111814;28;20065;-69
2021/11/29 02:11:07;;;;;;;2.45;0.57;;;;;;;;;;5125676;28;20040;-70
2021/11/29 02:13:33;;;;;;;1.63;0.50;;;;;;;;;;5125517;28;20035;-69
2021/11/29 02:15:59;;;;;;;1.55;0.40;;;;;;;;;;5125559;28;20062;-69
2021/11/29 02:18:27;;;;;;;1.20;0.40;;;;;;;;;;5123350;28;20046;-68
2021/11/29 02:21:08;;;;;;;2.20;1.23;;;;;;;;;;5125522;28;20133;-69
2021/11/29 02:23:36;;;;;;;2.28;0.55;;;;;;;;;;5123983;28;20054;-69
2021/11/29 02:26:03;;;;;;;3.05;1.15;;;;;;;;;;5123523;28;20119;-69
2021/11/29 02:28:29;;;;;;;4.18;0.98;;;;;;;;;;5123884;28;20056;-69
2021/11/29 02:30:55;;;;;;;4.32;0.77;;;;;;;;;;5125112;28;20080;-69
2021/11/29 02:33:22;;;;;;;1.73;0.50;;;;;;;;;;5123166;28;20066;-69
2021/11/29 02:35:48;;;;;;;8.73;0.90;;;;;;;;;;5124608;28;20044;-69
2021/11/29 02:38:14;;;;;;;9.43;1.27;;;;;;;;;;5123822;28;20059;-68
2021/11/29 02:40:40;;;;;;;3.88;1.05;;;;;;;;;;5110020;27;20047;-68
2021/11/29 02:43:06;;;;;;;6.75;1.17;;;;;;;;;;5142313;27;20050;-68
2021/11/29 02:45:32;;;;;;;7.30;0.93;;;;;;;;;;5146724;27;20098;-69
2021/11/29 02:47:58;;;;;;;10.00;1.50;;;;;;;;;;5145922;27;20047;-69
2021/11/29 02:50:25;;;;;;;6.35;1.00;;;;;;;;;;5127677;27;20255;-69
2021/11/29 02:52:51;;;;;;;3.70;0.73;;;;;;;;;;5127082;27;20050;-69
2021/11/29 02:55:17;;;;;;;4.45;0.90;;;;;;;;;;5126493;27;20077;-69
2021/11/29 02:57:43;;;;;;;7.22;0.90;;;;;;;;;;5145866;27;20068;-68
2021/11/29 03:00:10;;;;;;;3.78;0.80;;;;;;;;;;5126948;27;20506;-69
2021/11/29 03:02:36;;;;;;;6.83;1.10;;;;;;;;;;5144894;27;20098;-69
2021/11/29 03:05:06;;;;;;;7.13;0.90;;;;;;;;;;5126929;27;20046;-69
2021/11/29 03:07:32;;;;;;;8.68;0.90;;;;;;;;;;5145500;27;20391;-69
2021/11/29 03:09:58;;;;;;;3.67;0.82;;;;;;;;;;5126909;27;20051;-68
2021/11/29 03:12:24;;;;;;;4.90;0.90;;;;;;;;;;5144681;27;20395;-69
2021/11/29 03:14:50;;;;;;;6.97;0.90;;;;;;;;;;5126583;27;20035;-70
2021/11/29 03:17:17;;;;;;;12.48;2.63;;;;;;;;;;5144420;27;20070;-69
2021/11/29 03:19:45;;;;;;;5.93;1.00;;;;;;;;;;5126375;27;20047;-69
2021/11/29 03:22:10;;;;;;;;;;;;;;;;;;5126308;27;20455;-70
2021/11/29 03:24:37;;;;;;;2.00;0.70;;;;;;;;;;5143904;27;19961;-69
2021/11/29 03:27:04;;;;;;;2.30;1.13;;;;;;;;;;5143274;27;20414;-69
2021/11/29 03:29:30;;;;;;;6.88;1.00;;;;;;;;;;5144374;27;20066;-70
2021/11/29 03:31:59;;;;;;;7.97;1.45;;;;;;;;;;5126216;27;20050;-69
2021/11/29 03:34:25;;;;;;;6.45;0.68;;;;;;;;;;5145014;27;20039;-69
2021/11/29 03:36:51;;;;;;;3.72;0.80;;;;;;;;;;5144213;27;20118;-69
2021/11/29 03:39:24;;;;;;;1.17;0.55;;;;;;;;;;5144898;27;20078;-68
2021/11/29 03:41:54;;;;;;;4.78;1.05;;;;;;;;;;5126398;27;20065;-68
2021/11/29 03:44:20;;;;;;;6.93;1.00;;;;;;;;;;5126957;28;20055;-69
2021/11/29 03:46:47;;;;;;;0.85;0.73;;;;;;;;;;5144551;28;20098;-69
2021/11/29 03:49:14;;;;;;;3.22;0.60;;;;;;;;;;5137032;28;20047;-69
2021/11/29 03:51:40;;;;;;;5.40;0.70;;;;;;;;;;5126963;28;20494;-69
2021/11/29 03:54:07;;;;;;;3.70;0.70;;;;;;;;;;5126732;28;20072;-69
2021/11/29 03:56:33;;;;;;;6.75;0.90;;;;;;;;;;5144394;28;20074;-69
2021/11/29 03:58:59;;;;;;;2.97;0.70;;;;;;;;;;5144032;28;20102;-69
2021/11/29 04:01:26;;;;;;;2.70;0.93;;;;;;;;;;5117274;28;20051;-70
2021/11/29 04:03:52;;;;;;;4.13;1.10;;;;;;;;;;5143487;28;20043;-69
2021/11/29 04:06:18;;;;;;;2.40;1.10;;;;;;;;;;5125967;28;20047;-70
2021/11/29 04:08:44;;;;;;;2.40;1.17;;;;;;;;;;5126504;28;20039;-70
2021/11/29 04:11:10;;;;;;;4.93;1.50;;;;;;;;;;5144200;28;20483;-70
2021/11/29 04:13:36;;;;;;;5.07;0.88;;;;;;;;;;5125900;28;20050;-70
2021/11/29 04:16:03;;;;;;;7.70;1.35;;;;;;;;;;5125634;28;20040;-70
2021/11/29 04:18:29;;;;;;;6.72;2.15;;;;;;;;;;5124999;28;20110;-70
2021/11/29 04:20:56;;;;;;;9.45;1.40;;;;;;;;;;5125806;28;20039;-70
2021/11/29 04:23:22;;;;;;;2.95;0.90;;;;;;;;;;5120502;28;20055;-70
2021/11/29 04:28:14;;;;;;;2.40;1.00;;;;;;;;;;5143336;28;20096;-70
2021/11/29 04:30:41;;;;;;;4.55;1.13;;;;;;;;;;5143230;28;20039;-70
2021/11/29 04:33:07;;;;;;;5.20;1.27;;;;;;;;;;5125072;28;20036;-70
2021/11/29 04:35:33;;;;;;;4.60;1.00;;;;;;;;;;5126083;28;20448;-70
2021/11/29 04:37:59;;;;;;;4.88;1.63;;;;;;;;;;5125805;28;20039;-70
2021/11/29 04:40:25;;;;;;;3.38;0.90;;;;;;;;;;5143749;27;20054;-70
2021/11/29 04:42:51;;;;;;;4.50;1.52;;;;;;;;;;5129415;27;20070;-70
2021/11/29 04:45:17;;;;;;;3.30;1.42;;;;;;;;;;5129337;27;20510;-70
2021/11/29 04:47:43;;;;;;;2.55;0.80;;;;;;;;;;5148342;27;20408;-70
2021/11/29 04:50:10;;;;;;;3.20;0.95;;;;;;;;;;5148505;27;20100;-70
2021/11/29 04:52:36;;;;;;;1.67;0.93;;;;;;;;;;5113008;27;20043;-70
2021/11/29 04:55:03;;;;;;;3.35;0.70;;;;;;;;;;5129969;27;20122;-70
2021/11/29 04:57:29;;;;;;;5.65;1.27;;;;;;;;;;5148026;27;20042;-70
2021/11/29 04:59:56;;;;;;;3.53;0.90;;;;;;;;;;5148029;27;20143;-69
2021/11/29 05:02:22;;;;;;;2.58;1.10;;;;;;;;;;5127705;27;20054;-70
2021/11/29 05:04:48;;;;;;;2.30;0.80;;;;;;;;;;5146607;27;20130;-71
2021/11/29 05:07:15;;;;;;;5.05;1.00;;;;;;;;;;5128816;27;20111;-70
2021/11/29 05:09:42;;;;;;;2.85;0.90;;;;;;;;;;5129162;27;20047;-70
2021/11/29 05:12:14;;;;;;;1.55;0.90;;;;;;;;;;5128654;27;20054;-70
2021/11/29 05:14:40;;;;;;;3.00;1.02;;;;;;;;;;5128688;27;20051;-70
2021/11/29 05:17:06;;;;;;;4.25;1.20;;;;;;;;;;5146452;27;20039;-70
2021/11/29 05:19:32;;;;;;;4.05;1.30;;;;;;;;;;5146356;27;20049;-70
2021/11/29 05:21:58;;;;;;;5.97;1.92;;;;;;;;;;5147098;27;20046;-70
2021/11/29 05:24:25;;;;;;;3.63;1.30;;;;;;;;;;5146574;27;20051;-70
2021/11/29 05:26:51;;;;;;;3.63;1.27;;;;;;;;;;5145996;27;20532;-70
2021/11/29 05:29:17;;;;;;;3.30;1.20;;;;;;;;;;5127670;27;20050;-70
2021/11/29 05:31:44;;;;;;;5.10;1.42;;;;;;;;;;5126350;27;20506;-70
2021/11/29 05:34:10;;;;;;;2.23;1.20;;;;;;;;;;5127467;27;20043;-70
2021/11/29 05:36:36;;;;;;;5.53;1.90;;;;;;;;;;5145997;27;20118;-70
2021/11/29 05:39:03;;;;;;;3.17;1.70;;;;;;;;;;5145941;27;20051;-70
2021/11/29 05:41:29;;;;;;;4.87;1.50;;;;;;;;;;5126641;27;20506;-70
2021/11/29 05:43:55;;;;;;;4.38;1.65;;;;;;;;;;5127646;27;20303;-71
2021/11/29 05:46:22;;;;;;;8.77;2.85;;;;;;;;;;5126841;27;20035;-71
2021/11/29 05:48:48;;;;;;;4.10;1.95;;;;;;;;;;5125751;27;20141;-71
2021/11/29 05:51:14;;;;;;;2.63;1.73;;;;;;;;;;5126609;27;20050;-70
2021/11/29 05:53:40;;;;;;;5.88;2.70;;;;;;;;;;5126920;27;20053;-71
2021/11/29 05:56:08;;;;;;;12.57;2.42;;;;;;;;;;5145061;27;20406;-70
2021/11/29 05:58:34;;;;;;;3.75;2.05;;;;;;;;;;5126262;27;20047;-71
2021/11/29 06:01:01;;;;;;;3.40;2.22;;;;;;;;;;5126787;27;20047;-71
2021/11/29 06:03:27;;;;;;;8.60;2.78;;;;;;;;;;5126948;27;20043;-71
2021/11/29 06:05:53;;;;;;;7.32;2.75;;;;;;;;;;5144919;27;20510;-71
2021/11/29 06:08:19;;;;;;;8.35;2.90;;;;;;;;;;5125261;27;20047;-71
2021/11/29 06:10:45;;;;;;;10.30;2.90;;;;;;;;;;5126368;27;20043;-71
2021/11/29 06:13:11;;;;;;;6.65;2.95;;;;;;;;;;5126633;27;20047;-71
2021/11/29 06:15:37;;;;;;;9.93;3.20;;;;;;;;;;5144591;27;20039;-71
2021/11/29 06:18:03;;;;;;;8.93;3.95;;;;;;;;;;5144856;27;20042;-70
2021/11/29 06:20:29;;;;;;;12.30;3.47;;;;;;;;;;5108922;27;20046;-69
2021/11/29 06:22:56;;;;;;;9.77;4.07;;;;;;;;;;5145566;27;20076;-70
2021/11/29 06:25:23;;;;;;;7.65;3.20;;;;;;;;;;5144331;27;20072;-69
2021/11/29 06:27:49;;;;;;;6.90;3.37;;;;;;;;;;5126388;27;20110;-70
2021/11/29 06:30:16;;;;;;;7.18;3.75;;;;;;;;;;5126136;27;20332;-70
2021/11/29 06:32:42;;;;;;;8.20;3.83;;;;;;;;;;5118717;27;20039;-70
2021/11/29 06:35:08;;;;;;;9.55;3.55;;;;;;;;;;5124809;27;20043;-69
2021/11/29 06:37:36;;;;;;;12.77;3.72;;;;;;;;;;5126528;27;20070;-69
2021/11/29 06:40:03;;;;;;;10.20;3.92;;;;;;;;;;5142199;27;20051;-69
2021/11/29 06:42:29;;;;;;;10.57;4.05;;;;;;;;;;5125187;27;20071;-69
2021/11/29 06:44:55;;;;;;;9.65;4.05;;;;;;;;;;5143891;27;20046;-69
2021/11/29 06:47:21;;;;;;;6.68;3.28;;;;;;;;;;5128521;27;20049;-69
2021/11/29 06:49:47;;;;;;;8.10;4.10;;;;;;;;;;5143869;27;20126;-70
2021/11/29 06:52:13;;;;;;;6.55;3.53;;;;;;;;;;5145467;27;20043;-69
2021/11/29 06:54:40;;;;;;;13.93;5.05;;;;;;;;;;5144160;27;20043;-69
2021/11/29 06:57:06;;;;;;;11.07;6.40;;;;;;;;;;5123593;27;20047;-70
2021/11/29 06:59:33;;;;;;;12.43;7.35;;;;;;;;;;5143169;27;20398;-69
2021/11/29 07:02:00;;;;;;;14.65;7.07;;;;;;;;;;5124964;27;20043;-69
2021/11/29 07:04:27;;;;;;;17.42;6.28;;;;;;;;;;5140916;27;20066;-69
2021/11/29 07:06:53;;;;;;;14.65;6.50;;;;;;;;;;5143994;27;20039;-69
2021/11/29 07:09:19;;;;;;;19.08;7.80;;;;;;;;;;5124520;27;20059;-69
2021/11/29 07:11:45;;;;;;;10.80;5.25;;;;;;;;;;5141590;27;20039;-69
2021/11/29 07:14:11;;;;;;;15.75;5.35;;;;;;;;;;5124108;27;20051;-70
2021/11/29 07:16:38;;;;;;;14.63;6.78;;;;;;;;;;5143195;27;20087;-69
2021/11/29 07:19:04;;;;;;;29.23;9.77;;;;;;;;;;5141941;27;20192;-69
2021/11/29 07:21:31;;;;;;;29.63;11.43;;;;;;;;;;5141279;27;20130;-69
2021/11/29 07:23:57;;;;;;;26.38;11.48;;;;;;;;;;5142399;27;20100;-69
2021/11/29 07:26:23;;;;;;;23.52;12.88;;;;;;;;;;5141827;27;20046;-70
2021/11/29 07:28:49;;;;;;;35.28;18.08;;;;;;;;;;5143839;27;20043;-70
2021/11/29 07:31:16;;;;;;;24.00;9.40;;;;;;;;;;5143420;27;20047;-69
2021/11/29 07:33:42;;;;;;;26.88;8.77;;;;;;;;;;5124960;27;20042;-70
2021/11/29 07:36:08;;;;;;;21.80;9.43;;;;;;;;;;5143348;27;20072;-70
2021/11/29 07:38:34;;;;;;;32.88;14.88;;;;;;;;;;5143335;27;20047;-70
2021/11/29 07:41:00;;;;;;;28.48;10.82;;;;;;;;;;5142549;27;20051;-69
2021/11/29 07:43:27;;;;;;;30.30;10.27;;;;;;;;;;5143677;27;20047;-69
2021/11/29 07:45:53;;;;;;;29.48;13.30;;;;;;;;;;5124893;28;20042;-69
2021/11/29 07:48:21;;;;;;;25.17;8.68;;;;;;;;;;5143044;28;20051;-69
2021/11/29 07:50:47;;;;;;;27.05;9.15;;;;;;;;;;5125032;28;20070;-69
2021/11/29 07:53:13;;;;;;;21.38;8.93;;;;;;;;;;5124697;28;20045;-69
2021/11/29 07:55:39;;;;;;;32.28;12.95;;;;;;;;;;5110023;28;20043;-70
2021/11/29 07:58:06;;;;;;;31.27;10.55;;;;;;;;;;5143050;28;20031;-69
2021/11/29 08:00:34;;;;;;;22.05;8.18;;;;;;;;;;5141589;28;20150;-69
2021/11/29 08:03:01;;;;;;;26.60;8.50;;;;;;;;;;5142625;28;20124;-69
2021/11/29 08:05:28;;;;;;;18.73;8.37;;;;;;;;;;5143094;28;20051;-70
2021/11/29 08:07:54;;;;;;;34.42;9.75;;;;;;;;;;5123174;28;20035;-69
2021/11/29 08:10:21;;;;;;;30.00;10.68;;;;;;;;;;5142572;28;20046;-69
2021/11/29 08:12:48;;;;;;;24.83;10.33;;;;;;;;;;5123906;28;20112;-69
2021/11/29 08:15:14;;;;;;;29.08;9.43;;;;;;;;;;5123436;27;20317;-69
2021/11/29 08:17:41;;;;;;;31.75;9.30;;;;;;;;;;5125633;27;20050;-69
2021/11/29 08:20:07;;;;;;;24.13;9.02;;;;;;;;;;5143923;27;20098;-70
2021/11/29 08:22:34;;;;;;;24.55;9.63;;;;;;;;;;5142247;27;20039;-70
2021/11/29 08:25:01;;;;;;;25.42;9.70;;;;;;;;;;5144544;27;20105;-70
2021/11/29 08:28:01;;;;;;;24.48;11.10;;;;;;;;;;5124488;27;20162;-70
2021/11/29 08:30:27;;;;;;;34.08;10.55;;;;;;;;;;5138012;27;20084;-70
2021/11/29 08:32:54;;;;;;;31.33;10.65;;;;;;;;;;5142789;27;20552;-70
2021/11/29 08:35:21;;;;;;;35.00;11.82;;;;;;;;;;5127149;27;20067;-70
2021/11/29 08:37:49;;;;;;;30.13;11.18;;;;;;;;;;5125731;27;20067;-70
2021/11/29 08:40:16;;;;;;;38.17;12.85;;;;;;;;;;5123737;27;20141;-70
2021/11/29 08:42:42;;;;;;;41.97;12.10;;;;;;;;;;5145661;27;20057;-70
2021/11/29 08:45:09;;;;;;;35.15;13.40;;;;;;;;;;5122865;27;20096;-71
2021/11/29 08:47:35;;;;;;;34.80;13.50;;;;;;;;;;5127077;27;20060;-71
2021/11/29 08:50:01;;;;;;;39.05;13.80;;;;;;;;;;5127857;27;20106;-71
2021/11/29 08:52:33;;;;;;;35.60;13.10;;;;;;;;;;5108527;27;20079;-71
2021/11/29 08:54:59;;;;;;;33.88;12.57;;;;;;;;;;5125678;27;20051;-71
2021/11/29 08:57:25;;;;;;;30.58;12.77;;;;;;;;;;5127733;27;20039;-71
2021/11/29 08:59:51;;;;;;;38.25;12.80;;;;;;;;;;5127254;27;20050;-72
2021/11/29 09:02:17;;;;;;;32.25;13.27;;;;;;;;;;5144007;27;20047;-71
2021/11/29 09:04:43;;;;;;;27.83;12.63;;;;;;;;;;5123295;27;20046;-71
2021/11/29 09:07:09;;;;;;;29.60;12.93;;;;;;;;;;5117556;27;20043;-71
2021/11/29 09:09:35;;;;;;;30.95;11.80;;;;;;;;;;5125473;27;20099;-72
2021/11/29 09:12:02;;;;;;;22.50;10.55;;;;;;;;;;5123597;27;20118;-71
2021/11/29 09:14:28;;;;;;;22.00;10.35;;;;;;;;;;5142416;27;20050;-70
2021/11/29 09:16:56;;;;;;;23.73;9.70;;;;;;;;;;5121617;27;20043;-67
2021/11/29 09:19:22;;;;;;;21.77;8.88;;;;;;;;;;5129352;27;20059;-67
2021/11/29 09:21:48;;;;;;;17.33;8.77;;;;;;;;;;5124723;27;20111;-67
2021/11/29 09:24:14;;;;;;;17.13;8.80;;;;;;;;;;5123988;27;20035;-65
2021/11/29 09:26:40;;;;;;;18.13;8.15;;;;;;;;;;5140770;27;20039;-64
2021/11/29 09:29:06;;;;;;;23.40;8.77;;;;;;;;;;5140086;27;20043;-65
2021/11/29 09:31:33;;;;;;;18.80;7.90;;;;;;;;;;5143594;27;20032;-65
2021/11/29 09:33:59;;;;;;;17.13;7.90;;;;;;;;;;5142369;27;20051;-66
2021/11/29 09:36:25;;;;;;;17.67;7.85;;;;;;;;;;5120112;27;20121;-65
2021/11/29 09:38:51;;;;;;;14.43;8.00;;;;;;;;;;5144322;27;20055;-63
2021/11/29 09:41:20;;;;;;;15.45;7.85;;;;;;;;;;5143168;27;20047;-67
2021/11/29 09:43:46;;;;;;;15.68;8.05;;;;;;;;;;5125748;27;20380;-66
2021/11/29 09:46:12;;;;;;;17.77;9.30;;;;;;;;;;5144136;27;20074;-65
2021/11/29 09:48:38;;;;;;;20.20;8.20;;;;;;;;;;5120501;27;20525;-65
2021/11/29 09:51:04;;;;;;;13.88;7.20;;;;;;;;;;5141689;27;20114;-65
2021/11/29 09:53:31;;;;;;;14.85;7.35;;;;;;;;;;5119569;27;20053;-64
2021/11/29 09:56:01;;;;;;;11.55;6.75;;;;;;;;;;5142211;27;20053;-65
2021/11/29 09:58:28;;;;;;;10.98;6.22;;;;;;;;;;5122723;27;20057;-63
2021/11/29 10:00:56;;;;;;;12.80;7.18;;;;;;;;;;5143641;27;20039;-64
2021/11/29 10:03:22;;;;;;;;;;;;;;;;;;5142018;27;20039;-64
2021/11/29 10:05:49;;;;;;;14.45;6.85;;;;;;;;;;5139286;27;19930;-65
2021/11/29 10:08:29;;;;;;;10.03;6.13;;;;;;;;;;5144292;27;20134;-65
2021/11/29 10:11:05;;;;;;;12.77;7.00;;;;;;;;;;5111963;27;20291;-65
2021/11/29 10:13:44;;;;;;;11.98;7.35;;;;;;;;;;5139197;27;20053;-64
2021/11/29 10:16:10;;;;;;;12.00;6.70;;;;;;;;;;5142498;27;20081;-66
2021/11/29 10:18:36;;;;;;;12.88;7.35;;;;;;;;;;5143622;27;20036;-66
2021/11/29 10:21:06;;;;;;;13.98;6.88;;;;;;;;;;5139820;27;20495;-67
2021/11/29 10:23:40;;;;;;;9.80;6.32;;;;;;;;;;5140951;27;20403;-66
2021/11/29 10:26:07;;;;;;;13.20;7.32;;;;;;;;;;5140098;27;20047;-65
2021/11/29 10:28:35;;;;;;;16.88;7.05;;;;;;;;;;5125690;27;20103;-66
2021/11/29 10:31:01;;;;;;;;;;;;;;;;;;5142290;27;20042;-66
2021/11/29 10:33:28;;;;;;;10.52;6.72;;;;;;;;;;5141653;27;19927;-68
2021/11/29 10:35:54;;;;;;;13.25;6.90;;;;;;;;;;5124838;27;20047;-67
2021/11/29 10:38:30;;;;;;;10.30;7.07;;;;;;;;;;5121071;27;20047;-62
2021/11/29 10:40:57;;;;;;;10.77;7.07;;;;;;;;;;5141111;27;20059;-64
2021/11/29 10:43:35;;;;;;;9.77;6.65;;;;;;;;;;5105758;27;20043;-64
2021/11/29 10:46:16;;;;;;;10.52;6.28;;;;;;;;;;5136452;27;20083;-63
2021/11/29 10:48:42;;;;;;;11.20;5.90;;;;;;;;;;5141156;27;20103;-64
2021/11/29 10:51:09;;;;;;;9.68;5.43;;;;;;;;;;5123855;27;20677;-64
2021/11/29 10:53:52;;;;;;;9.07;5.75;;;;;;;;;;5142591;27;20042;-64
2021/11/29 10:56:18;;;;;;;10.80;5.38;;;;;;;;;;5122485;27;20130;-64
2021/11/29 10:58:47;;;;;;;6.68;4.70;;;;;;;;;;5122832;27;20410;-63
2021/11/29 11:01:15;;;;;;;9.88;5.55;;;;;;;;;;5141514;27;20047;-63
2021/11/29 11:03:50;;;;;;;10.10;5.60;;;;;;;;;;5123994;27;20046;-63
2021/11/29 11:06:16;;;;;;;8.68;5.07;;;;;;;;;;5134587;27;20053;-70
2021/11/29 11:08:42;;;;;;;7.97;4.72;;;;;;;;;;5142724;27;20035;-72
2021/11/29 11:11:41;;;;;;;6.63;4.72;;;;;;;;;;5140091;27;20039;-65
2021/11/29 11:14:17;;;;;;;5.60;3.90;;;;;;;;;;5059328;28;20053;-64
2021/11/29 11:16:46;;;;;;;7.50;4.20;;;;;;;;;;5040327;28;20051;-64
2021/11/29 11:19:21;;;;;;;8.50;4.35;;;;;;;;;;5058109;28;20508;-65
2021/11/29 11:21:47;;;;;;;6.63;4.03;;;;;;;;;;5041909;28;20055;-63
2021/11/29 11:24:19;;;;;;;12.25;4.78;;;;;;;;;;5057741;28;20065;-63
2021/11/29 11:26:46;;;;;;;6.53;4.40;;;;;;;;;;5059209;28;20116;-67
2021/11/29 11:29:13;;;;;;;8.43;3.95;;;;;;;;;;5058084;28;20410;-64
2021/11/29 11:31:39;;;;;;;10.90;4.32;;;;;;;;;;5043843;28;20049;-63
2021/11/29 11:34:05;;;;;;;6.13;4.38;;;;;;;;;;5035486;28;20083;-65
2021/11/29 11:36:31;;;;;;;6.70;4.57;;;;;;;;;;5043758;28;20391;-72
2021/11/29 11:39:04;;;;;;;5.45;4.03;;;;;;;;;;5060991;28;20048;-66
2021/11/29 11:41:32;;;;;;;7.88;4.13;;;;;;;;;;5058615;28;20574;-66
2021/11/29 11:43:59;;;;;;;8.10;4.85;;;;;;;;;;5056365;28;20110;-66
2021/11/29 11:46:25;;;;;;;6.38;3.85;;;;;;;;;;5057967;28;20044;-66
2021/11/29 11:48:52;;;;;;;4.93;3.53;;;;;;;;;;5072327;28;20093;-66
2021/11/29 11:51:18;;;;;;;5.57;3.22;;;;;;;;;;5139581;27;20532;-66
2021/11/29 11:53:44;;;;;;;5.65;3.10;;;;;;;;;;5139724;28;20054;-66
2021/11/29 11:56:10;;;;;;;7.53;3.35;;;;;;;;;;5122061;28;20043;-66
2021/11/29 11:58:42;;;;;;;5.43;3.10;;;;;;;;;;5140653;27;20111;-66
2021/11/29 12:01:13;;;;;;;4.25;2.85;;;;;;;;;;5115659;28;20039;-67
2021/11/29 12:03:45;;;;;;;7.45;3.22;;;;;;;;;;5141517;28;20046;-66
2021/11/29 12:06:18;;;;;;;3.70;2.20;;;;;;;;;;5139718;27;20100;-66
2021/11/29 12:08:57;;;;;;;2.20;1.73;;;;;;;;;;5137024;27;20039;-66
2021/11/29 12:11:24;;;;;;;5.43;2.17;;;;;;;;;;5132931;27;20036;-66
2021/11/29 12:13:51;;;;;;;5.80;2.30;;;;;;;;;;5145604;27;20040;-67
2021/11/29 12:16:41;;;;;;;4.07;1.98;;;;;;;;;;5133140;27;20131;-67
2021/11/29 12:19:08;;;;;;;4.43;2.20;;;;;;;;;;5110368;27;20130;-66
2021/11/29 12:21:38;;;;;;;5.53;2.53;;;;;;;;;;5128759;27;20040;-66
2021/11/29 12:24:05;;;;;;;3.95;2.13;;;;;;;;;;5116566;27;20086;-66
2021/11/29 12:26:46;;;;;;;2.15;1.90;;;;;;;;;;5139302;27;20501;-66
2021/11/29 12:29:22;;;;;;;2.60;1.80;;;;;;;;;;5139342;27;20047;-66
2021/11/29 12:32:00;;;;;;;4.07;1.98;;;;;;;;;;5118632;27;20059;-66
2021/11/29 12:37:20;;;;;;;3.80;2.22;;;;;;;;;;5140390;27;20049;-66
2021/11/29 12:39:49;;;;;;;4.07;2.42;;;;;;;;;;5129938;27;20068;-66
2021/11/29 12:42:26;;;;;;;4.70;2.50;;;;;;;;;;5134198;27;20043;-66
2021/11/29 12:45:00;;;;;;;2.88;1.58;;;;;;;;;;5143865;27;20121;-66
2021/11/29 12:47:30;;;;;;;2.33;1.40;;;;;;;;;;5140788;28;20051;-66
2021/11/29 12:49:57;;;;;;;3.05;1.80;;;;;;;;;;5139860;28;20072;-66
2021/11/29 12:52:45;;;;;;;3.03;1.80;;;;;;;;;;5135755;28;20126;-66
2021/11/29 12:55:20;;;;;;;2.80;1.88;;;;;;;;;;5117462;28;20083;-66
2021/11/29 12:57:47;;;;;;;2.25;1.65;;;;;;;;;;5137805;27;20127;-65
2021/11/29 13:00:19;;;;;;;4.82;2.30;;;;;;;;;;5139203;28;20043;-65
2021/11/29 13:03:02;;;;;;;3.08;2.42;;;;;;;;;;5121924;27;20119;-65
2021/11/29 13:05:28;;;;;;;3.70;2.25;;;;;;;;;;5122377;27;20057;-65
2021/11/29 13:08:14;;;;;;;3.90;2.30;;;;;;;;;;5144137;27;20035;-65
2021/11/29 13:10:56;;;;;;;3.75;2.22;;;;;;;;;;5138263;27;20058;-66
2021/11/29 13:13:32;;;;;;;4.18;2.40;;;;;;;;;;5144860;27;20074;-65
2021/11/29 13:15:59;;;;;;;4.25;2.53;;;;;;;;;;5125277;27;20462;-66
2021/11/29 13:18:45;;;;;;;5.68;2.40;;;;;;;;;;5143620;27;20111;-66
2021/11/29 13:21:17;;;;;;;5.03;2.25;;;;;;;;;;5126397;27;20055;-66
2021/11/29 13:24:01;;;;;;;5.18;2.33;;;;;;;;;;5141714;27;20099;-65
2021/11/29 13:26:28;;;;;;;5.50;2.38;;;;;;;;;;5142823;27;20451;-66
2021/11/29 13:28:57;;;;;;;3.22;2.25;;;;;;;;;;5126032;27;20070;-66
2021/11/29 13:31:31;;;;;;;3.38;2.20;;;;;;;;;;5126690;27;20053;-66
2021/11/29 13:34:00;;;;;;;3.28;2.45;;;;;;;;;;5124191;27;20083;-66
2021/11/29 13:36:38;;;;;;;4.80;2.58;;;;;;;;;;5142992;27;20039;-66
2021/11/29 13:39:10;;;;;;;3.58;2.08;;;;;;;;;;5124318;27;20055;-66
2021/11/29 13:41:36;;;;;;;4.53;2.00;;;;;;;;;;5142517;27;20086;-65
2021/11/29 13:44:18;;;;;;;3.17;2.35;;;;;;;;;;5144240;27;20050;-65
2021/11/29 13:47:03;;;;;;;6.72;2.08;;;;;;;;;;5137047;27;20146;-65
2021/11/29 13:49:32;;;;;;;4.10;2.80;;;;;;;;;;5143376;27;20051;-65
2021/11/29 13:51:58;;;;;;;4.13;2.35;;;;;;;;;;5142276;27;20043;-65
2021/11/29 13:54:24;;;;;;;7.07;2.60;;;;;;;;;;5125065;27;20533;-66
2021/11/29 13:56:50;;;;;;;5.22;3.05;;;;;;;;;;5144461;27;20041;-65
2021/11/29 13:59:17;;;;;;;4.47;2.70;;;;;;;;;;5125968;27;20111;-65
2021/11/29 14:01:43;;;;;;;6.90;2.80;;;;;;;;;;5126223;27;20043;-66
2021/11/29 14:04:09;;;;;;;4.63;2.75;;;;;;;;;;5144533;27;20046;-65
2021/11/29 14:06:35;;;;;;;5.70;2.88;;;;;;;;;;5144110;27;20038;-66
2021/11/29 14:09:02;;;;;;;5.10;3.53;;;;;;;;;;5124416;27;20157;-65
2021/11/29 14:11:33;;;;;;;7.07;2.92;;;;;;;;;;5125483;27;20059;-65
2021/11/29 14:14:03;;;;;;;3.65;2.90;;;;;;;;;;5143990;27;20043;-65
2021/11/29 14:16:36;;;;;;;3.33;2.50;;;;;;;;;;5126529;27;20047;-65
2021/11/29 14:19:04;;;;;;;3.28;2.42;;;;;;;;;;5144688;27;20043;-64
2021/11/29 14:21:33;;;;;;;;;;;;;;;;;;5125893;27;20884;-65
2021/11/29 14:24:11;;;;;;;2.80;2.33;;;;;;;;;;5145037;27;19926;-65
2021/11/29 14:26:39;;;;;;;4.88;2.72;;;;;;;;;;5124118;27;20074;-64
2021/11/29 14:29:05;;;;;;;;;;;;;;;;;;5126024;27;21623;-65
2021/11/29 14:31:31;;;;;;;4.82;3.10;;;;;;;;;;5142808;27;19923;-64
2021/11/29 14:33:57;;;;;;;4.45;3.10;;;;;;;;;;5143884;27;20088;-65
2021/11/29 14:36:37;;;;;;;3.38;2.83;;;;;;;;;;5139316;27;20047;-62
2021/11/29 14:39:08;;;;;;;4.07;2.45;;;;;;;;;;5143643;27;20039;-62
2021/11/29 14:41:54;;;;;;;5.32;3.35;;;;;;;;;;5143872;27;20055;-62
2021/11/29 14:44:21;;;;;;;5.75;3.17;;;;;;;;;;5122623;27;20047;-65
2021/11/29 14:46:48;;;;;;;9.53;3.27;;;;;;;;;;5142618;27;20040;-65
2021/11/29 14:49:17;;;;;;;3.47;2.80;;;;;;;;;;5143369;27;20058;-65